JP-0006 weather

CLOSED Kyūshū Airport
Kokura Minami-ku, Fukuoka Prefecture, Japan

Public forecast

Using degrees Celsius for public forecast. Weather courtesy of forecast.io.

Closest aviation weather report (METAR) to Kyūshū Airport

Closest report is Kitakyūshū Airport, 4.4 nm (8.2 km) E. Retrieved 2019/12/06 05:00 UTC (28 minutes ago):

RJFR 060500Z 02010KT 9999 FEW020 BKN030 BKN/// 09/03 Q1028

Closest aviation forecast (TAF) to Kyūshū Airport

Closest forecast is Kitakyūshū Airport, 4.4 nm (8.2 km) E. Retrieved 2019-12-06 00:30 UTC (5 hours ago):

TAF TAF RJFR 052309Z 0600/0706 36006KT 9999 FEW010 SCT020 BKN025